Nearby METAR Reports

 

KTTN - Trenton, New Jersey, USA
Distance from station: W 8mi, 12km
Updated: Fri, 17-Sep-2021 11:53am EDT
Overcast
Overcast
 Wind from ENE
Wind: ENE 12 mph , 19 km/h
Temperature: 72°F , 22°C
Dew Point: 70°F , 21°C
Humidity: 94%
Barometer: 30.22 inHg , 1023.4 hPa
Clouds: Overcast
Visibility: 10 miles , 16 km
Cloud details: Overcast 1200 ft
2021/09/17 15:53 KTTN 171553Z 06010KT 10SM OVC012 22/21 A3022 RMK AO2 SLP228 T02220211
KWRI - Wrightst/Mcguire, New Jersey, USA
Distance from station: SSE 18mi, 29km
Updated: Fri, 17-Sep-2021 12:16pm EDT
Overcast
Overcast
 Wind from NE
Wind: NE 14 mph , 22 km/h
Temperature: 73°F , 23°C
Dew Point: 70°F , 21°C
Humidity: 89%
Barometer: 30.21 inHg , 1023 hPa
Clouds: Overcast
Visibility: 10 miles , 16 km
Cloud details: Overcast 900 ft
2021/09/17 16:16 KWRI 171616Z 05012KT 10SM OVC009 23/21 A3021 RMK AO2A SLP229
KPNE - Philadelphia/Ne, Pennsylvania, USA
Distance from station: SW 22mi, 35km
Updated: Fri, 17-Sep-2021 11:54am EDT
Overcast
Overcast
 Wind from ENE
Wind: ENE 9 mph , 15 km/h
Temperature: 73°F , 23°C
Dew Point: 70°F , 21°C
Humidity: 89%
Barometer: 30.23 inHg , 1023.7 hPa
Clouds: Overcast
Visibility: 10 miles , 16 km
Cloud details: Overcast 1500 ft
2021/09/17 15:54 KPNE 171554Z 06008KT 10SM OVC015 23/21 A3023 RMK AO2 SLP237 T02280206
 
KDYL - Doylestown, Pennsylvania, USA
Distance from station: W 24mi, 38km
Updated: Fri, 17-Sep-2021 11:54am EDT
Overcast
Overcast
 Wind from NNE
Wind: NNE 3 mph , 6 km/h
Temperature: 72°F , 22°C
Dew Point: 66°F , 19°C
Humidity: 83%
Barometer: 30.24 inHg , 1024 hPa
Clouds: Overcast
Visibility: 10 miles , 16 km
Cloud details: Overcast 700 ft
2021/09/17 15:54 KDYL 171554Z AUTO 02003KT 10SM OVC007 22/19 A3024 RMK AO2 RAE06 CIG 005V011 SLP234 P0000 T02220194
KSMQ - Somerville, New Jersey, USA
Distance from station: 0 24mi, 39km
Updated: Fri, 17-Sep-2021 12:16pm EDT
Overcast
Overcast
 Wind from ENE
Wind: ENE 7 mph , 11 km/h
Temperature: 73°F , 23°C
Dew Point: 68°F , 20°C
Humidity: 83%
Barometer: 30.22 inHg , 1023.4 hPa
Clouds: Overcast
Visibility: 10 miles , 16 km
Cloud details: Overcast 1500 ft
2021/09/17 16:16 KSMQ 171616Z AUTO 06006KT 10SM OVC015 23/20 A3022 RMK AO2 T02330200
KVAY - Mount Holly, New Jersey, USA
Distance from station: SSW 24mi, 39km
Updated: Fri, 17-Sep-2021 11:54am EDT
Overcast
Overcast
 Wind from NNE
Wind: NNE 8 mph , 13 km/h
Temperature: 75°F , 24°C
Dew Point: 70°F , 21°C
Humidity: 83%
Barometer: 30.21 inHg , 1023 hPa
Clouds: Overcast
Visibility: 10 miles , 16 km
Cloud details: Overcast 1300 ft
2021/09/17 15:54 KVAY 171554Z AUTO 03007KT 10SM OVC013 24/21 A3021 RMK AO2 SLP228 T02390206
 
KNEL - Lakehurst Nas, New Jersey, USA
Distance from station: SE 25mi, 40km
Updated: Fri, 17-Sep-2021 12:00pm EDT
Overcast
Overcast
 Wind from NE
Wind: NE 8 mph , 13 km/h
Temperature: 72°F , 22°C
Dew Point: 70°F , 21°C
Humidity: 94%
Barometer: 30.21 inHg , 1023 hPa
Clouds: Overcast
Visibility: 7 miles , 11 km
Cloud details: Overcast 500 ft
2021/09/17 16:00 KNEL 171600Z 04007KT 7SM OVC005 22/21 A3021 RMK AO2 SLP227 T02170206 $
KBLM - Belmar/Farmdale, New Jersey, USA
Distance from station: ESE 30mi, 48km
Updated: Fri, 17-Sep-2021 11:56am EDT
Light rain, Overcast
Light rain, Overcast
 Wind from NE
Wind: NE 12 mph , 19 km/h
Temperature: 72°F , 22°C
Dew Point: 70°F , 21°C
Humidity: 94%
Barometer: 30.24 inHg , 1024 hPa
Summary: Light rain
Clouds: Overcast
Visibility: 10 miles , 16 km
Cloud details: Overcast 500 ft
2021/09/17 15:56 KBLM 171556Z AUTO 04010KT 10SM -RA OVC005 22/21 A3024 RMK AO2 RAB55 SLP239 T02170211 PNO $
KMJX - Toms River, New Jersey, USA
Distance from station: SE 30mi, 49km
Updated: Fri, 17-Sep-2021 11:13am EDT
NOT Current
Overcast
Overcast
 Wind from NE
Wind: NE 10 mph , 17 km/h
Temperature: 72°F , 22°C
Dew Point: 70°F , 21°C
Humidity: 94%
Barometer: 30.23 inHg , 1023.7 hPa
Clouds: Overcast
Visibility: 10 miles , 16 km
Cloud details: Overcast 700 ft
2021/09/17 15:13 KMJX 171513Z AUTO 05009KT 10SM OVC007 22/21 A3023 RMK AO2
 
KLOM - Philly Wings F, Pennsylvania, USA
Distance from station: WSW 33mi, 52km
Updated: Thu, 16-Sep-2021 11:35pm EDT
NOT Current
Overcast
Overcast
 Wind from NE
Wind: NE 6 mph , 9 km/h
Temperature: 72°F , 22°C
Dew Point: 68°F , 20°C
Humidity: 88%
Barometer: 30.22 inHg , 1023.4 hPa
Clouds: Overcast
Visibility: 10 miles , 16 km
Cloud details: Overcast 1000 ft
2021/09/17 03:35 KLOM 170335Z AUTO 05005KT 10SM OVC010 22/20 A3022 RMK AO2 T02160201
KCKZ - Perkasie, Pennsylvania, USA
Distance from station: WNW 33mi, 53km
Updated: Fri, 17-Sep-2021 12:15pm EDT
Mist, Overcast
Mist, Overcast
 Wind from E
Wind: E 5 mph , 7 km/h
Temperature: 70°F , 21°C
Dew Point: 70°F , 21°C
Humidity: 100%
Barometer: 30.26 inHg , 1024.7 hPa
Summary: Mist
Clouds: Overcast
Visibility: 5 miles , 8 km
Cloud details: Overcast 600 ft
2021/09/17 16:15 KCKZ 171615Z AUTO 09004KT 5SM BR OVC006 21/21 A3026 RMK AO2
KLDJ - Linden, New Jersey, USA
Distance from station: NE 33mi, 53km
Updated: Fri, 17-Sep-2021 12:15pm EDT
Overcast
Overcast
 Wind from ENE
Wind: ENE 7 mph , 11 km/h
Temperature: 72°F , 22°C
Dew Point: 66°F , 19°C
Humidity: 83%
Barometer: 30.24 inHg , 1024 hPa
Clouds: Overcast
Visibility: 10 miles , 16 km
Cloud details: Overcast 1100 ft
2021/09/17 16:15 KLDJ 171615Z AUTO 06006KT 10SM OVC011 22/19 A3024 RMK AO2 T02220187
 
KMMU - Morristown Muni, New Jersey, USA
Distance from station: NNE 38mi, 62km
Updated: Fri, 17-Sep-2021 11:45am EDT
Overcast
Overcast
 Wind from ENE
Wind: ENE 7 mph , 11 km/h
Temperature: 72°F , 22°C
Dew Point: 68°F , 20°C
Humidity: 88%
Barometer: 30.26 inHg , 1024.7 hPa
Clouds: Overcast
Visibility: 10 miles , 16 km
Cloud details: Overcast 1000 ft
2021/09/17 15:45 KMMU 171545Z 07006KT 10SM OVC010 22/20 A3026
KEWR - Newark, New Jersey, USA
Distance from station: NE 39mi, 63km
Updated: Fri, 17-Sep-2021 11:51am EDT
Overcast
Overcast
 Wind from NNE
Wind: NNE 10 mph , 17 km/h
Temperature: 73°F , 23°C
Dew Point: 66°F , 19°C
Humidity: 78%
Barometer: 30.24 inHg , 1024 hPa
Clouds: Overcast
Visibility: 10 miles , 16 km
Cloud details: Overcast 1000 ft
2021/09/17 15:51 KEWR 171551Z 03009KT 10SM OVC010 23/19 A3024 RMK AO2 SLP240 T02330194
KUKT - Quakertown Arp, Pennsylvania, USA
Distance from station: WNW 39mi, 63km
Updated: Fri, 17-Sep-2021 12:15pm EDT
Overcast
Overcast
 Wind from ENE
Wind: ENE 5 mph , 7 km/h
Temperature: 72°F , 22°C
Dew Point: 70°F , 21°C
Humidity: 94%
Barometer: 30.25 inHg , 1024.4 hPa
Clouds: Overcast
Visibility: 10 miles , 16 km
Cloud details: Mostly cloudy 1200 ft
Overcast 1800 ft
2021/09/17 16:15 KUKT 171615Z AUTO 06004KT 10SM BKN012 OVC018 22/21 A3025 RMK A01
 
KPHL - Philadelphia, Pennsylvania, USA
Distance from station: SW 40mi, 65km
Updated: Fri, 17-Sep-2021 11:54am EDT
Overcast
Overcast
 Wind from NE
Wind: NE 10 mph , 17 km/h
Temperature: 75°F , 24°C
Dew Point: 70°F , 21°C
Humidity: 83%
Barometer: 30.21 inHg , 1023 hPa
Clouds: Overcast
Visibility: 10 miles , 16 km
Cloud details: Mostly cloudy 1700 ft
Overcast 2300 ft
2021/09/17 15:54 KPHL 171554Z 05009KT 10SM BKN017 OVC023 24/21 A3021 RMK AO2 SLP231 T02390206 $
KJRB - Manhattan/Dwntwn, New York, USA
Distance from station: NE 46mi, 74km
Updated: Fri, 17-Sep-2021 11:56am EDT
Overcast
Overcast
 Wind from NE
Wind: NE 13 mph , 20 km/h
Temperature: 72°F , 22°C
Dew Point: 66°F , 19°C
Humidity: 83%
Barometer: 30.25 inHg , 1024.4 hPa
Clouds: Overcast
Visibility: 10 miles , 16 km
Cloud details: Overcast 1000 ft
2021/09/17 15:56 KJRB 171556Z AUTO 04011KT 10SM OVC010 22/19 A3025 RMK AO2 SLP241 T02220194
KPTW - Pottstown, Pennsylvania, USA
Distance from station: W 46mi, 74km
Updated: Fri, 17-Sep-2021 12:05pm EDT
Overcast
Overcast
 Wind from ENE
Wind: ENE 7 mph , 11 km/h
Temperature: 70°F , 21°C
Dew Point: 68°F , 20°C
Humidity: 94%
Barometer: 30.25 inHg , 1024.4 hPa
Clouds: Overcast
Visibility: 7 miles , 11 km
Cloud details: Partly cloudy 900 ft
Mostly cloudy 1700 ft
Overcast 2200 ft
2021/09/17 16:05 KPTW 171605Z AUTO 06006KT 7SM SCT009 BKN017 OVC022 21/20 A3025 RMK AO2 RAE04 P0000 T02110200
 
KCDW - Caldwell, New Jersey, USA
Distance from station: NNE 47mi, 76km
Updated: Fri, 17-Sep-2021 11:53am EDT
Overcast
Overcast
 Wind from E
Wind: E 10 mph , 17 km/h
Temperature: 73°F , 23°C
Dew Point: 66°F , 19°C
Humidity: 78%
Barometer: 30.26 inHg , 1024.7 hPa
Clouds: Overcast
Visibility: 10 miles , 16 km
Cloud details: Overcast 1200 ft
2021/09/17 15:53 KCDW 171553Z 09009KT 10SM OVC012 23/19 A3026 RMK AO2 SLP250 T02330189
KXLL - Allentown Queen, Pennsylvania, USA
Distance from station: WNW 47mi, 76km
Updated: Fri, 17-Sep-2021 11:55am EDT
Overcast
Overcast
 Wind from ENE
Wind: ENE 8 mph , 13 km/h
Temperature: 72°F , 22°C
Dew Point: 68°F , 20°C
Humidity: 88%
Barometer: 30.26 inHg , 1024.7 hPa
Clouds: Overcast
Visibility: 10 miles , 16 km
Cloud details: Overcast 1000 ft
2021/09/17 15:55 KXLL 171555Z AUTO 06007KT 10SM OVC010 22/20 A3026 RMK AO2